createdAt,value
2018-12-09T00:01:33.422Z,4.10
2018-12-09T00:04:01.718Z,16.23
2018-12-09T00:06:29.979Z,7.70
2018-12-09T00:08:58.249Z,6.80
2018-12-09T00:11:26.599Z,4.17
2018-12-09T00:13:54.962Z,7.50
2018-12-09T00:16:23.299Z,6.43
2018-12-09T00:18:51.576Z,4.67
2018-12-09T00:21:19.816Z,9.87
2018-12-09T00:23:48.135Z,7.20
2018-12-09T00:26:16.388Z,10.93
2018-12-09T00:28:44.684Z,7.33
2018-12-09T00:31:12.992Z,7.23
2018-12-09T00:33:41.331Z,7.73
2018-12-09T00:36:09.594Z,5.53
2018-12-09T00:38:37.849Z,4.17
2018-12-09T00:41:06.146Z,4.50
2018-12-09T00:43:34.388Z,5.97
2018-12-09T00:46:02.652Z,7.20
2018-12-09T00:48:31.181Z,6.50
2018-12-09T00:50:59.436Z,3.70
2018-12-09T00:53:27.692Z,6.87
2018-12-09T00:55:56.015Z,10.20
2018-12-09T00:58:24.260Z,5.17
2018-12-09T01:00:52.531Z,5.43
2018-12-09T01:03:20.861Z,6.23
2018-12-09T01:05:49.124Z,7.83
2018-12-09T01:08:17.440Z,4.20
2018-12-09T01:10:45.744Z,5.90
2018-12-09T01:13:14.056Z,4.33
2018-12-09T01:15:42.298Z,3.63
2018-12-09T01:18:10.545Z,7.80
2018-12-09T01:20:38.852Z,4.50
2018-12-09T01:23:07.126Z,4.67
2018-12-09T01:25:35.433Z,4.60
2018-12-09T01:28:03.684Z,6.07
2018-12-09T01:30:31.937Z,3.80
2018-12-09T01:33:00.184Z,3.63
2018-12-09T01:35:28.429Z,4.43
2018-12-09T01:37:56.695Z,6.60
2018-12-09T01:40:24.937Z,6.00
2018-12-09T01:42:53.280Z,13.33
2018-12-09T01:45:22.046Z,11.10
2018-12-09T01:47:50.287Z,10.40
2018-12-09T01:50:18.535Z,9.03
2018-12-09T01:52:51.319Z,14.60
2018-12-09T01:55:19.559Z,9.17
2018-12-09T01:57:47.809Z,9.70
2018-12-09T02:00:16.382Z,6.80
2018-12-09T02:02:44.699Z,9.90
2018-12-09T02:05:12.966Z,10.50
2018-12-09T02:07:41.508Z,8.73
2018-12-09T02:10:09.878Z,8.95
2018-12-09T02:12:38.212Z,5.57
2018-12-09T02:15:06.677Z,16.73
2018-12-09T02:17:34.989Z,14.83
2018-12-09T02:20:03.348Z,12.60
2018-12-09T02:22:31.605Z,10.43
2018-12-09T02:24:59.857Z,11.47
2018-12-09T02:27:28.112Z,10.47
2018-12-09T02:29:56.657Z,11.87
2018-12-09T02:32:24.911Z,9.50
2018-12-09T02:34:53.408Z,7.87
2018-12-09T02:37:21.648Z,8.40
2018-12-09T02:39:49.901Z,4.70
2018-12-09T02:42:18.376Z,10.80
2018-12-09T02:44:46.620Z,7.40
2018-12-09T02:47:14.864Z,5.57
2018-12-09T02:49:43.116Z,3.90
2018-12-09T02:52:11.668Z,4.80
2018-12-09T02:54:40.031Z,8.23
2018-12-09T02:57:08.296Z,5.03
2018-12-09T02:59:36.551Z,6.60
2018-12-09T03:02:05.021Z,5.93
2018-12-09T03:04:33.393Z,6.03
2018-12-09T03:07:01.656Z,2.93
2018-12-09T03:09:29.903Z,4.20
2018-12-09T03:11:58.246Z,2.23
2018-12-09T03:14:26.900Z,6.53
2018-12-09T03:16:55.373Z,10.23
2018-12-09T03:19:23.631Z,8.13
2018-12-09T03:21:51.872Z,5.13
2018-12-09T03:24:20.132Z,4.30
2018-12-09T03:26:48.435Z,3.17
2018-12-09T03:29:16.676Z,4.13
2018-12-09T03:31:45.152Z,3.43
2018-12-09T03:34:13.480Z,8.83
2018-12-09T03:36:41.722Z,6.57
2018-12-09T03:39:09.976Z,5.97
2018-12-09T03:41:38.274Z,2.20
2018-12-09T03:44:06.739Z,8.27
2018-12-09T03:46:35.081Z,4.30
2018-12-09T03:49:03.789Z,10.70
2018-12-09T03:51:32.187Z,5.47
2018-12-09T03:54:00.517Z,9.47
2018-12-09T03:56:28.749Z,8.10
2018-12-09T03:58:57.105Z,6.93
2018-12-09T04:01:25.548Z,12.03
2018-12-09T04:03:54.121Z,5.43
2018-12-09T04:06:22.361Z,12.43
2018-12-09T04:08:50.613Z,13.97
2018-12-09T04:11:18.863Z,8.63
2018-12-09T04:13:47.113Z,10.30
2018-12-09T04:16:15.458Z,14.10
2018-12-09T04:18:43.721Z,7.47
2018-12-09T04:21:11.965Z,9.53
2018-12-09T04:23:40.220Z,10.08
2018-12-09T04:26:08.466Z,6.10
2018-12-09T04:28:36.829Z,4.53
2018-12-09T04:31:05.068Z,6.10
2018-12-09T04:33:33.304Z,6.10
2018-12-09T04:36:02.165Z,11.03
2018-12-09T04:38:30.415Z,7.03
2018-12-09T04:40:59.685Z,11.50
2018-12-09T04:43:28.039Z,7.57
2018-12-09T04:45:56.286Z,13.43
2018-12-09T04:48:24.705Z,5.10
2018-12-09T04:50:53.054Z,13.27
2018-12-09T04:53:21.292Z,7.97
2018-12-09T04:55:49.556Z,5.53
2018-12-09T04:58:17.797Z,8.27
2018-12-09T05:00:55.279Z,7.63
2018-12-09T05:03:23.665Z,8.00
2018-12-09T05:05:52.023Z,4.70
2018-12-09T05:08:20.385Z,7.90
2018-12-09T05:10:48.781Z,9.83
2018-12-09T05:13:17.041Z,7.93
2018-12-09T05:15:45.301Z,10.27
2018-12-09T05:18:14.544Z,10.03
2018-12-09T05:20:42.805Z,5.43
2018-12-09T05:23:11.104Z,5.57
2018-12-09T05:25:39.360Z,5.47
2018-12-09T05:28:07.623Z,11.03
2018-12-09T05:30:35.960Z,8.47
2018-12-09T05:33:04.709Z,5.57
2018-12-09T05:35:32.968Z,4.53
2018-12-09T05:38:01.228Z,5.27
2018-12-09T05:40:29.468Z,5.33
2018-12-09T05:42:57.716Z,3.83
2018-12-09T05:45:26.386Z,7.67
2018-12-09T05:47:54.644Z,7.00
2018-12-09T05:50:22.949Z,8.47
2018-12-09T05:52:51.205Z,3.60
2018-12-09T05:55:19.609Z,4.37
2018-12-09T05:57:48.157Z,6.07
2018-12-09T06:00:16.474Z,5.57
2018-12-09T06:02:57.704Z,3.23
2018-12-09T06:05:25.964Z,6.33
2018-12-09T06:07:54.222Z,3.53
2018-12-09T06:10:22.620Z,5.30
2018-12-09T06:12:50.882Z,3.37
2018-12-09T06:15:19.241Z,4.57
2018-12-09T06:17:47.588Z,7.37
2018-12-09T06:20:15.828Z,7.03
2018-12-09T06:22:44.189Z,4.50
2018-12-09T06:25:12.435Z,4.17
2018-12-09T06:27:40.698Z,6.47
2018-12-09T06:30:09.306Z,3.87
2018-12-09T06:32:37.620Z,2.60
2018-12-09T06:35:06.070Z,4.13
2018-12-09T06:37:34.421Z,1.50
2018-12-09T06:40:02.888Z,2.90
2018-12-09T06:42:31.160Z,2.73
2018-12-09T06:44:59.504Z,4.87
2018-12-09T06:47:27.751Z,8.87
2018-12-09T06:49:56.010Z,13.93
2018-12-09T06:52:24.248Z,6.27
2018-12-09T06:54:52.489Z,8.23
2018-12-09T06:57:20.855Z,9.20
2018-12-09T06:59:49.201Z,4.73
2018-12-09T07:02:17.456Z,6.83
2018-12-09T07:04:45.816Z,6.97
2018-12-09T07:07:14.126Z,4.03
2018-12-09T07:09:42.372Z,11.67
2018-12-09T07:12:10.732Z,2.37
2018-12-09T07:14:38.989Z,4.58
2018-12-09T07:17:07.312Z,12.80
2018-12-09T07:19:35.551Z,5.47
2018-12-09T07:22:03.792Z,7.53
2018-12-09T07:24:32.057Z,11.93
2018-12-09T07:27:00.379Z,6.80
2018-12-09T07:29:28.672Z,6.93
2018-12-09T07:31:56.933Z,8.40
2018-12-09T07:34:25.176Z,3.67
2018-12-09T07:36:53.477Z,7.50
2018-12-09T07:39:21.865Z,6.77
2018-12-09T07:41:50.144Z,4.37
2018-12-09T07:44:18.397Z,12.93
2018-12-09T07:46:46.679Z,4.77
2018-12-09T07:49:15.082Z,3.65
2018-12-09T07:51:43.378Z,16.30
2018-12-09T07:54:11.727Z,13.57
2018-12-09T07:56:40.042Z,3.83
2018-12-09T07:59:09.378Z,3.40
2018-12-09T08:01:37.625Z,2.50
2018-12-09T08:04:05.960Z,5.17
2018-12-09T08:06:34.242Z,3.00
2018-12-09T08:09:02.646Z,2.83
2018-12-09T08:11:30.964Z,3.40
2018-12-09T08:13:59.358Z,4.37
2018-12-09T08:16:27.661Z,4.20
2018-12-09T08:18:56.047Z,6.10
2018-12-09T08:21:24.451Z,6.00
2018-12-09T08:23:53.000Z,3.43
2018-12-09T08:26:21.268Z,4.97
2018-12-09T08:28:49.512Z,4.00
2018-12-09T08:31:17.821Z,5.43
2018-12-09T08:33:46.055Z,4.33
2018-12-09T08:36:14.324Z,5.93
2018-12-09T08:38:42.560Z,5.00
2018-12-09T08:41:10.820Z,7.30
2018-12-09T08:43:39.086Z,4.40
2018-12-09T08:46:07.334Z,8.13
2018-12-09T08:48:35.595Z,5.30
2018-12-09T08:51:03.844Z,7.20
2018-12-09T08:53:32.096Z,5.07
2018-12-09T08:56:01.020Z,10.43
2018-12-09T08:58:29.293Z,8.85
2018-12-09T09:00:57.619Z,7.03
2018-12-09T09:03:25.905Z,10.03
2018-12-09T09:05:54.157Z,4.23
2018-12-09T09:08:22.587Z,10.50
2018-12-09T09:10:50.845Z,9.30
2018-12-09T09:13:19.107Z,11.33
2018-12-09T09:15:47.385Z,11.00
2018-12-09T09:18:15.711Z,8.13
2018-12-09T09:20:43.972Z,9.13
2018-12-09T09:23:12.238Z,7.83
2018-12-09T09:25:40.481Z,10.23
2018-12-09T09:28:08.821Z,10.13
2018-12-09T09:30:37.120Z,7.10
2018-12-09T09:33:05.383Z,10.03
2018-12-09T09:35:33.644Z,11.73
2018-12-09T09:38:01.954Z,11.63
2018-12-09T09:40:30.197Z,10.60
2018-12-09T09:42:58.448Z,6.57
2018-12-09T09:45:26.736Z,10.03
2018-12-09T09:48:00.365Z,13.47
2018-12-09T09:50:28.705Z,11.10
2018-12-09T09:52:57.004Z,9.97
2018-12-09T09:55:25.253Z,9.63
2018-12-09T09:57:53.547Z,13.73
2018-12-09T10:00:21.934Z,35.30
2018-12-09T10:02:50.201Z,13.20
2018-12-09T10:05:18.479Z,12.90
2018-12-09T10:07:46.749Z,5.37
2018-12-09T10:10:15.008Z,6.00
2018-12-09T10:12:43.268Z,6.10
2018-12-09T10:15:11.582Z,11.57
2018-12-09T10:17:39.955Z,16.83
2018-12-09T10:20:08.335Z,10.93
2018-12-09T10:22:36.628Z,9.70
2018-12-09T10:25:05.493Z,6.80
2018-12-09T10:27:33.785Z,5.70
2018-12-09T10:30:02.061Z,10.13
2018-12-09T10:32:30.372Z,7.90
2018-12-09T10:34:58.621Z,9.83
2018-12-09T10:37:26.989Z,8.70
2018-12-09T10:39:55.269Z,10.27
2018-12-09T10:42:23.511Z,8.43
2018-12-09T10:44:51.753Z,10.33
2018-12-09T10:47:20.096Z,10.40
2018-12-09T10:49:48.398Z,11.10
2018-12-09T10:52:16.746Z,8.30
2018-12-09T10:54:44.993Z,10.83
2018-12-09T10:57:13.240Z,10.63
2018-12-09T10:59:41.504Z,14.70
2018-12-09T11:02:15.200Z,7.03
2018-12-09T11:04:43.635Z,8.37
2018-12-09T11:07:11.957Z,6.90
2018-12-09T11:09:40.220Z,6.47
2018-12-09T11:12:08.481Z,10.40
2018-12-09T11:14:36.773Z,7.17
2018-12-09T11:17:05.025Z,4.13
2018-12-09T11:19:33.266Z,5.57
2018-12-09T11:22:01.508Z,3.67
2018-12-09T11:24:29.771Z,2.57
2018-12-09T11:26:58.056Z,5.73
2018-12-09T11:29:26.329Z,4.57
2018-12-09T11:31:54.600Z,4.07
2018-12-09T11:34:22.853Z,3.17
2018-12-09T11:36:51.908Z,1.53
2018-12-09T11:39:20.162Z,2.60
2018-12-09T11:41:48.528Z,2.77
2018-12-09T11:44:16.809Z,2.60
2018-12-09T11:46:45.093Z,3.73
2018-12-09T11:49:13.341Z,4.30
2018-12-09T11:51:41.600Z,3.00
2018-12-09T11:54:09.856Z,7.30
2018-12-09T11:56:38.188Z,1.60
2018-12-09T11:59:06.563Z,4.30
2018-12-09T12:01:34.831Z,1.30
2018-12-09T12:04:03.089Z,6.70
2018-12-09T12:06:31.400Z,1.90
2018-12-09T12:08:59.644Z,2.27
2018-12-09T12:11:27.914Z,1.23
2018-12-09T12:13:56.161Z,3.17
2018-12-09T12:16:24.400Z,4.30
2018-12-09T12:18:52.679Z,4.90
2018-12-09T12:21:20.952Z,10.40
2018-12-09T12:23:49.236Z,3.67
2018-12-09T12:26:17.549Z,6.67
2018-12-09T12:28:45.788Z,3.13
2018-12-09T12:31:14.054Z,2.67
2018-12-09T12:33:42.352Z,1.90
2018-12-09T12:36:10.691Z,2.23
2018-12-09T12:38:38.992Z,2.17
2018-12-09T12:41:07.260Z,1.63
2018-12-09T12:43:35.513Z,2.97
2018-12-09T12:46:03.820Z,3.50
2018-12-09T12:48:32.146Z,3.57
2018-12-09T12:51:00.485Z,2.53
2018-12-09T12:53:28.751Z,4.20
2018-12-09T12:55:57.001Z,4.43
2018-12-09T12:58:25.250Z,2.50
2018-12-09T13:00:53.580Z,2.13
2018-12-09T13:03:21.835Z,3.90
2018-12-09T13:05:50.273Z,2.63
2018-12-09T13:08:18.584Z,3.00
2018-12-09T13:10:46.829Z,1.80
2018-12-09T13:13:16.233Z,2.42
2018-12-09T13:15:44.472Z,2.60
2018-12-09T13:18:12.742Z,2.77
2018-12-09T13:20:40.984Z,3.67
2018-12-09T13:23:09.249Z,3.70
2018-12-09T13:25:37.643Z,3.60
2018-12-09T13:28:05.902Z,6.43
2018-12-09T13:30:34.240Z,2.22
2018-12-09T13:33:02.502Z,4.90
2018-12-09T13:35:30.760Z,6.70
2018-12-09T13:37:59.020Z,2.20
2018-12-09T13:40:27.325Z,1.65
2018-12-09T13:42:55.582Z,4.00
2018-12-09T13:45:23.830Z,2.30
2018-12-09T13:47:52.355Z,6.37
2018-12-09T13:50:20.676Z,3.80
2018-12-09T13:52:48.909Z,5.63
2018-12-09T13:55:17.165Z,2.83
2018-12-09T13:57:45.417Z,3.87
2018-12-09T14:03:03.210Z,1.40
2018-12-09T14:05:31.510Z,2.80
2018-12-09T14:07:59.768Z,4.77
2018-12-09T14:10:28.080Z,4.50
2018-12-09T14:12:56.392Z,3.07
2018-12-09T14:15:24.697Z,6.03
2018-12-09T14:17:53.063Z,6.83
2018-12-09T14:20:21.302Z,5.60
2018-12-09T14:22:49.653Z,5.50
2018-12-09T14:25:17.925Z,4.33
2018-12-09T14:27:46.179Z,5.10
2018-12-09T14:30:14.709Z,3.27
2018-12-09T14:32:42.971Z,2.00
2018-12-09T14:35:11.224Z,4.00
2018-12-09T14:37:39.505Z,4.50
2018-12-09T14:40:08.672Z,5.50
2018-12-09T14:42:36.968Z,8.70
2018-12-09T14:45:06.916Z,2.93
2018-12-09T14:47:35.180Z,10.07
2018-12-09T14:50:03.532Z,3.90
2018-12-09T14:52:31.784Z,5.00
2018-12-09T14:55:00.215Z,5.97
2018-12-09T14:57:28.452Z,6.73
2018-12-09T14:59:56.709Z,3.00
2018-12-09T15:02:24.965Z,14.07
2018-12-09T15:04:53.210Z,11.37
2018-12-09T15:07:21.489Z,3.57
2018-12-09T15:09:50.020Z,3.87
2018-12-09T15:12:18.496Z,2.97
2018-12-09T15:14:46.932Z,9.00
2018-12-09T15:17:15.245Z,7.53
2018-12-09T15:19:43.482Z,8.40
2018-12-09T15:22:11.749Z,6.93
2018-12-09T15:24:41.615Z,9.63
2018-12-09T15:27:10.227Z,6.03
2018-12-09T15:29:38.560Z,5.28
2018-12-09T15:32:06.829Z,4.33
2018-12-09T15:34:35.092Z,4.63
2018-12-09T15:37:03.405Z,8.63
2018-12-09T15:39:31.655Z,4.47
2018-12-09T15:41:59.934Z,3.37
2018-12-09T15:44:28.191Z,7.40
2018-12-09T15:46:56.433Z,6.23
2018-12-09T15:49:24.700Z,6.73
2018-12-09T15:51:52.955Z,5.33
2018-12-09T15:57:04.084Z,5.63
2018-12-09T15:59:32.568Z,5.03
2018-12-09T16:02:01.026Z,5.60
2018-12-09T16:04:29.304Z,17.80
2018-12-09T16:06:57.586Z,14.90
2018-12-09T16:09:25.861Z,6.57
2018-12-09T16:11:54.121Z,5.10
2018-12-09T16:14:22.376Z,5.37
2018-12-09T16:16:50.660Z,4.90
2018-12-09T16:19:18.910Z,7.47
2018-12-09T16:21:47.166Z,6.17
2018-12-09T16:24:15.435Z,8.90
2018-12-09T16:26:43.695Z,5.40
2018-12-09T16:29:12.144Z,4.40
2018-12-09T16:31:40.434Z,5.90
2018-12-09T16:34:08.704Z,9.80
2018-12-09T16:36:36.977Z,12.57
2018-12-09T16:39:06.844Z,6.33
2018-12-09T16:41:35.129Z,6.67
2018-12-09T16:44:03.623Z,6.50
2018-12-09T16:46:31.897Z,7.67
2018-12-09T16:49:00.239Z,13.80
2018-12-09T16:51:28.493Z,9.27
2018-12-09T16:53:56.767Z,6.35
2018-12-09T16:56:25.012Z,5.53
2018-12-09T16:58:53.268Z,3.70
2018-12-09T17:01:21.650Z,6.87
2018-12-09T17:03:49.915Z,4.43
2018-12-09T17:06:18.180Z,12.13
2018-12-09T17:08:46.512Z,10.47
2018-12-09T17:11:14.823Z,5.93
2018-12-09T17:13:43.073Z,7.10
2018-12-09T17:16:11.348Z,7.10
2018-12-09T17:18:39.650Z,4.70
2018-12-09T17:21:07.910Z,6.07
2018-12-09T17:23:36.399Z,4.90
2018-12-09T17:26:04.705Z,8.43
2018-12-09T17:28:33.061Z,10.48
2018-12-09T17:31:01.383Z,12.27
2018-12-09T17:33:29.645Z,11.17
2018-12-09T17:35:57.922Z,11.33
2018-12-09T17:38:26.169Z,7.17
2018-12-09T17:40:54.428Z,5.10
2018-12-09T17:43:22.704Z,7.53
2018-12-09T17:45:50.980Z,6.77
2018-12-09T17:48:19.402Z,9.57
2018-12-09T17:50:47.747Z,6.83
2018-12-09T17:53:17.158Z,7.98
2018-12-09T17:55:45.480Z,6.90
2018-12-09T17:58:13.772Z,4.40
2018-12-09T18:00:42.045Z,5.83
2018-12-09T18:03:10.382Z,4.20
2018-12-09T18:05:38.743Z,5.30
2018-12-09T18:08:07.227Z,5.63
2018-12-09T18:10:35.875Z,4.53
2018-12-09T18:13:04.424Z,9.10
2018-12-09T18:17:58.472Z,3.53
2018-12-09T18:20:26.898Z,10.70
2018-12-09T18:22:55.823Z,6.33
2018-12-09T18:27:53.572Z,8.33
2018-12-09T18:30:22.786Z,6.97
2018-12-09T18:32:52.956Z,6.60
2018-12-09T18:35:22.153Z,9.05
2018-12-09T18:37:51.331Z,10.50
2018-12-09T18:40:20.585Z,4.87
2018-12-09T18:42:50.384Z,12.40
2018-12-09T18:45:19.827Z,11.67
2018-12-09T18:47:49.104Z,10.77
2018-12-09T18:50:18.346Z,15.30
2018-12-09T18:52:47.575Z,10.87
2018-12-09T18:55:16.826Z,12.57
2018-12-09T18:57:46.224Z,13.80
2018-12-09T19:00:15.640Z,8.77
2018-12-09T19:02:44.872Z,7.50
2018-12-09T19:05:14.232Z,14.97
2018-12-09T19:07:43.505Z,9.97
2018-12-09T19:10:12.608Z,10.37
2018-12-09T19:12:41.523Z,8.57
2018-12-09T19:15:10.789Z,8.47
2018-12-09T19:17:40.109Z,10.43
2018-12-09T19:20:09.466Z,11.30
2018-12-09T19:22:38.804Z,11.80
2018-12-09T19:25:08.127Z,5.73
2018-12-09T19:27:37.384Z,5.30
2018-12-09T19:30:07.351Z,9.37
2018-12-09T19:32:36.679Z,5.87
2018-12-09T19:35:05.955Z,5.37
2018-12-09T19:37:35.158Z,5.63
2018-12-09T19:40:05.896Z,12.60
2018-12-09T19:42:35.261Z,7.47
2018-12-09T19:45:04.530Z,16.02
2018-12-09T19:47:33.773Z,7.23
2018-12-09T19:50:03.177Z,9.67
2018-12-09T19:52:32.422Z,13.40
2018-12-09T19:55:01.616Z,13.85
2018-12-09T19:57:30.966Z,11.73
2018-12-09T20:00:00.228Z,20.17
2018-12-09T20:02:29.463Z,11.23
2018-12-09T20:04:58.766Z,11.10
2018-12-09T20:07:27.960Z,14.87
2018-12-09T20:09:57.442Z,11.70
2018-12-09T20:12:26.665Z,11.67
2018-12-09T20:14:55.873Z,17.37
2018-12-09T20:17:26.150Z,12.00
2018-12-09T20:19:55.427Z,8.37
2018-12-09T20:22:24.667Z,16.97
2018-12-09T20:24:54.076Z,14.10
2018-12-09T20:27:23.244Z,12.80
2018-12-09T20:29:52.626Z,12.63
2018-12-09T20:32:21.937Z,14.27
2018-12-09T20:34:51.149Z,12.67
2018-12-09T20:37:20.437Z,17.80
2018-12-09T20:39:49.769Z,23.05
2018-12-09T20:42:19.043Z,15.23
2018-12-09T20:44:48.441Z,14.80
2018-12-09T20:47:17.651Z,9.30
2018-12-09T20:49:46.894Z,15.40
2018-12-09T20:52:16.201Z,14.80
2018-12-09T20:54:45.371Z,19.20
2018-12-09T20:57:14.730Z,15.00
2018-12-09T20:59:43.965Z,19.00
2018-12-09T21:02:13.303Z,9.93
2018-12-09T21:04:42.551Z,12.50
2018-12-09T21:07:11.801Z,19.27
2018-12-09T21:09:41.039Z,14.07
2018-12-09T21:12:10.424Z,15.10
2018-12-09T21:14:39.787Z,11.77
2018-12-09T21:17:08.983Z,15.47
2018-12-09T21:19:38.247Z,11.53
2018-12-09T21:22:07.489Z,16.53
2018-12-09T21:24:36.576Z,10.43
2018-12-09T21:27:05.698Z,18.57
2018-12-09T21:29:35.055Z,15.23
2018-12-09T21:32:04.193Z,12.30
2018-12-09T21:34:33.339Z,9.27
2018-12-09T21:37:02.589Z,16.20
2018-12-09T21:39:31.811Z,13.43
2018-12-09T21:42:00.713Z,21.77
2018-12-09T21:44:29.292Z,13.97
2018-12-09T21:46:57.712Z,14.03
2018-12-09T21:49:25.969Z,6.80
2018-12-09T21:51:54.222Z,12.40
2018-12-09T21:54:22.503Z,15.13
2018-12-09T21:56:50.737Z,16.67
2018-12-09T21:59:19.057Z,9.47
2018-12-09T22:01:47.465Z,14.73
2018-12-09T22:04:15.792Z,15.20
2018-12-09T22:06:44.051Z,15.30
2018-12-09T22:09:12.291Z,20.30
2018-12-09T22:11:40.559Z,12.53
2018-12-09T22:14:08.876Z,19.25
2018-12-09T22:16:37.213Z,17.63
2018-12-09T22:19:05.617Z,19.30
2018-12-09T22:21:33.947Z,10.47
2018-12-09T22:24:02.279Z,28.93
2018-12-09T22:26:30.708Z,15.97
2018-12-09T22:28:59.013Z,10.40
2018-12-09T22:31:27.341Z,18.10
2018-12-09T22:33:55.677Z,13.90
2018-12-09T22:36:24.480Z,14.20
2018-12-09T22:38:52.817Z,14.80
2018-12-09T22:41:21.210Z,17.77
2018-12-09T22:43:49.641Z,13.60
2018-12-09T22:46:17.981Z,16.60
2018-12-09T22:48:46.295Z,20.93
2018-12-09T22:51:14.755Z,20.07
2018-12-09T22:53:43.186Z,23.87
2018-12-09T22:56:11.523Z,13.50
2018-12-09T22:58:39.788Z,11.70
2018-12-09T23:01:20.022Z,12.30
2018-12-09T23:03:48.267Z,12.23
2018-12-09T23:06:16.560Z,11.70
2018-12-09T23:08:44.829Z,11.87
2018-12-09T23:11:13.075Z,13.30
2018-12-09T23:13:41.380Z,22.77
2018-12-09T23:16:09.643Z,18.37
2018-12-09T23:18:37.941Z,17.60
2018-12-09T23:21:06.190Z,19.63
2018-12-09T23:23:34.459Z,18.87
2018-12-09T23:26:02.696Z,18.70
2018-12-09T23:28:30.948Z,8.38
2018-12-09T23:30:59.201Z,14.47
2018-12-09T23:33:27.454Z,22.87
2018-12-09T23:35:55.723Z,16.00
2018-12-09T23:38:24.121Z,16.70
2018-12-09T23:40:52.391Z,12.40
2018-12-09T23:43:20.642Z,13.83
2018-12-09T23:45:48.892Z,18.17
2018-12-09T23:48:18.148Z,15.30
2018-12-09T23:50:46.384Z,10.87
2018-12-09T23:53:14.651Z,13.17
2018-12-09T23:55:42.900Z,13.83
2018-12-09T23:58:11.140Z,11.37
